sensor_id;sensor_type;location;lat;lon;timestamp;temperature;humidity
12889;DHT22;56848;49.896;11.424;2023-01-28T05:01:54;-0.70;99.90
12889;DHT22;56848;49.896;11.424;2023-01-28T05:04:20;-0.80;99.90
12889;DHT22;56848;49.896;11.424;2023-01-28T05:06:45;-0.80;99.90
12889;DHT22;56848;49.896;11.424;2023-01-28T05:09:11;-0.70;99.90
12889;DHT22;56848;49.896;11.424;2023-01-28T05:11:37;-0.70;99.90
12889;DHT22;56848;49.896;11.424;2023-01-28T05:14:02;-0.80;99.90
12889;DHT22;56848;49.896;11.424;2023-01-28T05:16:28;-0.80;99.90
12889;DHT22;56848;49.896;11.424;2023-01-28T05:18:53;-0.80;99.90
12889;DHT22;56848;49.896;11.424;2023-01-28T05:21:19;-0.80;99.90
12889;DHT22;56848;49.896;11.424;2023-01-28T05:23:44;-0.80;99.90
12889;DHT22;56848;49.896;11.424;2023-01-28T05:26:10;-0.80;99.90
12889;DHT22;56848;49.896;11.424;2023-01-28T05:28:35;-0.80;99.90
12889;DHT22;56848;49.896;11.424;2023-01-28T05:31:03;-0.80;99.90
12889;DHT22;56848;49.896;11.424;2023-01-28T05:33:29;-0.80;99.90
12889;DHT22;56848;49.896;11.424;2023-01-28T05:35:54;-0.80;99.90
12889;DHT22;56848;49.896;11.424;2023-01-28T05:38:20;-0.80;99.90
12889;DHT22;56848;49.896;11.424;2023-01-28T05:40:46;-0.80;99.90
12889;DHT22;56848;49.896;11.424;2023-01-28T05:43:12;-0.80;99.90
12889;DHT22;56848;49.896;11.424;2023-01-28T05:45:37;-0.80;99.90
12889;DHT22;56848;49.896;11.424;2023-01-28T05:48:03;-0.80;99.90
12889;DHT22;56848;49.896;11.424;2023-01-28T05:50:29;-0.80;99.90
12889;DHT22;56848;49.896;11.424;2023-01-28T05:52:54;-0.80;99.90
12889;DHT22;56848;49.896;11.424;2023-01-28T05:55:20;-0.80;99.90
12889;DHT22;56848;49.896;11.424;2023-01-28T05:57:45;-0.80;99.90
12889;DHT22;56848;49.896;11.424;2023-01-28T06:00:12;-0.80;99.90
12889;DHT22;56848;49.896;11.424;2023-01-28T06:02:39;-0.80;99.90
12889;DHT22;56848;49.896;11.424;2023-01-28T06:05:05;-0.80;99.90
12889;DHT22;56848;49.896;11.424;2023-01-28T06:07:30;-0.80;99.90
12889;DHT22;56848;49.896;11.424;2023-01-28T06:09:56;-0.80;99.90
12889;DHT22;56848;49.896;11.424;2023-01-28T06:12:21;-0.80;99.90
12889;DHT22;56848;49.896;11.424;2023-01-28T06:14:47;-0.80;99.90
12889;DHT22;56848;49.896;11.424;2023-01-28T06:17:12;-0.90;99.90
12889;DHT22;56848;49.896;11.424;2023-01-28T06:19:38;-0.80;99.90
12889;DHT22;56848;49.896;11.424;2023-01-28T06:22:03;-0.90;99.90
12889;DHT22;56848;49.896;11.424;2023-01-28T06:24:29;-0.80;99.90
12889;DHT22;56848;49.896;11.424;2023-01-28T06:26:54;-0.80;99.90
12889;DHT22;56848;49.896;11.424;2023-01-28T06:29:20;-0.90;99.90
12889;DHT22;56848;49.896;11.424;2023-01-28T06:31:46;-0.80;99.90
12889;DHT22;56848;49.896;11.424;2023-01-28T06:34:11;-0.90;99.90
12889;DHT22;56848;49.896;11.424;2023-01-28T06:36:38;-0.90;99.90
12889;DHT22;56848;49.896;11.424;2023-01-28T06:39:04;-0.90;99.90
12889;DHT22;56848;49.896;11.424;2023-01-28T06:41:29;-0.80;99.90
12889;DHT22;56848;49.896;11.424;2023-01-28T06:43:55;-0.90;99.90
12889;DHT22;56848;49.896;11.424;2023-01-28T06:46:20;-0.80;99.90
12889;DHT22;56848;49.896;11.424;2023-01-28T06:48:46;-0.80;99.90
12889;DHT22;56848;49.896;11.424;2023-01-28T06:51:11;-0.90;99.90
12889;DHT22;56848;49.896;11.424;2023-01-28T06:53:37;-0.90;99.90
12889;DHT22;56848;49.896;11.424;2023-01-28T06:56:03;-0.90;99.90
12889;DHT22;56848;49.896;11.424;2023-01-28T06:58:28;-0.80;99.90
12889;DHT22;56848;49.896;11.424;2023-01-28T07:00:54;-0.90;99.90
12889;DHT22;56848;49.896;11.424;2023-01-28T07:03:20;-0.80;99.90
12889;DHT22;56848;49.896;11.424;2023-01-28T07:05:46;-0.90;99.90
12889;DHT22;56848;49.896;11.424;2023-01-28T07:08:11;-0.80;99.90
12889;DHT22;56848;49.896;11.424;2023-01-28T07:10:37;-0.80;99.90
12889;DHT22;56848;49.896;11.424;2023-01-28T07:13:02;-0.80;99.90
12889;DHT22;56848;49.896;11.424;2023-01-28T07:15:28;-0.80;99.90
12889;DHT22;56848;49.896;11.424;2023-01-28T07:17:54;-0.80;99.90
12889;DHT22;56848;49.896;11.424;2023-01-28T07:20:19;-0.80;99.90
12889;DHT22;56848;49.896;11.424;2023-01-28T07:22:45;-0.80;99.90
12889;DHT22;56848;49.896;11.424;2023-01-28T07:25:12;-0.80;99.90
12889;DHT22;56848;49.896;11.424;2023-01-28T07:27:38;-0.80;99.90
12889;DHT22;56848;49.896;11.424;2023-01-28T07:30:04;-0.80;99.90
12889;DHT22;56848;49.896;11.424;2023-01-28T07:32:30;-0.80;99.90
12889;DHT22;56848;49.896;11.424;2023-01-28T07:34:55;-0.80;99.90
12889;DHT22;56848;49.896;11.424;2023-01-28T07:37:21;-0.80;99.90
12889;DHT22;56848;49.896;11.424;2023-01-28T07:39:47;-0.80;99.90
12889;DHT22;56848;49.896;11.424;2023-01-28T07:42:13;-0.80;99.90
12889;DHT22;56848;49.896;11.424;2023-01-28T07:44:38;-0.80;99.90
12889;DHT22;56848;49.896;11.424;2023-01-28T07:47:04;-0.80;99.90
12889;DHT22;56848;49.896;11.424;2023-01-28T07:49:32;-0.80;99.90
12889;DHT22;56848;49.896;11.424;2023-01-28T07:51:58;-0.80;99.90
12889;DHT22;56848;49.896;11.424;2023-01-28T07:54:23;-0.80;99.90
12889;DHT22;56848;49.896;11.424;2023-01-28T07:56:49;-0.80;99.90
12889;DHT22;56848;49.896;11.424;2023-01-28T07:59:15;-0.90;99.90
12889;DHT22;56848;49.896;11.424;2023-01-28T08:01:40;-0.90;99.90
12889;DHT22;56848;49.896;11.424;2023-01-28T08:04:06;-0.90;99.90
12889;DHT22;56848;49.896;11.424;2023-01-28T08:06:31;-0.90;99.90
12889;DHT22;56848;49.896;11.424;2023-01-28T08:09:05;-0.90;99.90
12889;DHT22;56848;49.896;11.424;2023-01-28T08:11:33;-0.90;99.90
12889;DHT22;56848;49.896;11.424;2023-01-28T08:13:58;-0.90;99.90
12889;DHT22;56848;49.896;11.424;2023-01-28T08:16:24;-0.90;99.90
12889;DHT22;56848;49.896;11.424;2023-01-28T08:18:51;-0.90;99.90
12889;DHT22;56848;49.896;11.424;2023-01-28T08:21:16;-0.90;99.90
12889;DHT22;56848;49.896;11.424;2023-01-28T08:23:42;-0.90;99.90
12889;DHT22;56848;49.896;11.424;2023-01-28T08:26:07;-0.90;99.90
12889;DHT22;56848;49.896;11.424;2023-01-28T08:28:33;-1.00;99.90
12889;DHT22;56848;49.896;11.424;2023-01-28T08:31:00;-1.00;99.90
12889;DHT22;56848;49.896;11.424;2023-01-28T08:33:25;-1.00;99.90
12889;DHT22;56848;49.896;11.424;2023-01-28T08:35:51;-1.00;99.90
12889;DHT22;56848;49.896;11.424;2023-01-28T08:38:17;-1.00;99.90
12889;DHT22;56848;49.896;11.424;2023-01-28T08:40:44;-1.00;99.90
12889;DHT22;56848;49.896;11.424;2023-01-28T08:43:10;-1.00;99.90
12889;DHT22;56848;49.896;11.424;2023-01-28T08:45:35;-1.00;99.90
12889;DHT22;56848;49.896;11.424;2023-01-28T08:48:04;-1.00;99.90
12889;DHT22;56848;49.896;11.424;2023-01-28T08:50:33;-1.00;99.90
12889;DHT22;56848;49.896;11.424;2023-01-28T08:53:01;-0.90;99.90
12889;DHT22;56848;49.896;11.424;2023-01-28T08:55:28;-0.90;99.90
12889;DHT22;56848;49.896;11.424;2023-01-28T08:57:54;-0.90;99.90
12889;DHT22;56848;49.896;11.424;2023-01-28T09:00:21;-0.90;99.90
12889;DHT22;56848;49.896;11.424;2023-01-28T09:02:50;-0.90;99.90
12889;DHT22;56848;49.896;11.424;2023-01-28T09:05:16;-0.90;99.90
12889;DHT22;56848;49.896;11.424;2023-01-28T09:07:41;-0.90;99.90
12889;DHT22;56848;49.896;11.424;2023-01-28T09:10:07;-1.00;99.90
12889;DHT22;56848;49.896;11.424;2023-01-28T09:12:34;-1.00;99.90
12889;DHT22;56848;49.896;11.424;2023-01-28T09:15:00;-1.00;99.90
12889;DHT22;56848;49.896;11.424;2023-01-28T09:17:26;-0.90;99.90
12889;DHT22;56848;49.896;11.424;2023-01-28T09:19:51;-0.80;99.90
12889;DHT22;56848;49.896;11.424;2023-01-28T09:22:17;-0.60;99.90
12889;DHT22;56848;49.896;11.424;2023-01-28T09:24:43;-0.60;99.90
12889;DHT22;56848;49.896;11.424;2023-01-28T09:27:09;-0.80;99.90
12889;DHT22;56848;49.896;11.424;2023-01-28T09:29:34;-0.60;99.90
12889;DHT22;56848;49.896;11.424;2023-01-28T09:32:00;-0.70;99.90
12889;DHT22;56848;49.896;11.424;2023-01-28T09:34:26;-0.70;99.90
12889;DHT22;56848;49.896;11.424;2023-01-28T09:36:52;-0.80;99.90
12889;DHT22;56848;49.896;11.424;2023-01-28T09:39:17;-0.90;99.90
12889;DHT22;56848;49.896;11.424;2023-01-28T09:41:47;-0.90;99.90
12889;DHT22;56848;49.896;11.424;2023-01-28T09:47:21;-0.80;99.90
12889;DHT22;56848;49.896;11.424;2023-01-28T09:49:50;-0.70;99.90
12889;DHT22;56848;49.896;11.424;2023-01-28T09:52:18;-0.60;99.90
12889;DHT22;56848;49.896;11.424;2023-01-28T09:54:48;-0.70;99.90
12889;DHT22;56848;49.896;11.424;2023-01-28T09:57:23;-0.80;99.90
12889;DHT22;56848;49.896;11.424;2023-01-28T09:59:50;-0.70;99.90
12889;DHT22;56848;49.896;11.424;2023-01-28T10:02:22;-0.70;99.90
12889;DHT22;56848;49.896;11.424;2023-01-28T10:08:21;-0.80;99.90
12889;DHT22;56848;49.896;11.424;2023-01-28T10:14:04;-1.10;99.90
12889;DHT22;56848;49.896;11.424;2023-01-28T10:16:37;-1.00;99.90
12889;DHT22;56848;49.896;11.424;2023-01-28T10:19:29;-1.00;99.90
12889;DHT22;56848;49.896;11.424;2023-01-28T10:22:04;-1.00;99.90
12889;DHT22;56848;49.896;11.424;2023-01-28T10:24:34;-0.80;99.90
12889;DHT22;56848;49.896;11.424;2023-01-28T10:27:01;-0.70;99.90
12889;DHT22;56848;49.896;11.424;2023-01-28T10:29:30;-0.80;99.90
12889;DHT22;56848;49.896;11.424;2023-01-28T10:32:25;-0.80;99.90
12889;DHT22;56848;49.896;11.424;2023-01-28T10:34:52;-0.70;99.90
12889;DHT22;56848;49.896;11.424;2023-01-28T10:37:18;-0.70;99.90
12889;DHT22;56848;49.896;11.424;2023-01-28T10:39:44;-0.70;99.90
12889;DHT22;56848;49.896;11.424;2023-01-28T10:45:00;-0.70;99.90
12889;DHT22;56848;49.896;11.424;2023-01-28T10:47:34;-0.70;99.90
12889;DHT22;56848;49.896;11.424;2023-01-28T10:50:04;-0.60;99.90
12889;DHT22;56848;49.896;11.424;2023-01-28T10:52:30;-0.20;99.90
12889;DHT22;56848;49.896;11.424;2023-01-28T10:55:00;0.00;99.90
12889;DHT22;56848;49.896;11.424;2023-01-28T10:57:26;-0.20;99.90
12889;DHT22;56848;49.896;11.424;2023-01-28T10:59:51;-0.10;99.90
12889;DHT22;56848;49.896;11.424;2023-01-28T11:02:30;-0.20;99.90
12889;DHT22;56848;49.896;11.424;2023-01-28T11:07:35;-0.40;99.90
12889;DHT22;56848;49.896;11.424;2023-01-28T11:10:01;-0.50;99.90
12889;DHT22;56848;49.896;11.424;2023-01-28T11:12:28;-0.40;99.90
12889;DHT22;56848;49.896;11.424;2023-01-28T11:14:59;-0.60;99.90
12889;DHT22;56848;49.896;11.424;2023-01-28T11:17:27;-0.60;99.90
12889;DHT22;56848;49.896;11.424;2023-01-28T11:19:56;-0.50;99.90
12889;DHT22;56848;49.896;11.424;2023-01-28T11:22:41;-0.70;99.90
12889;DHT22;56848;49.896;11.424;2023-01-28T11:27:54;-0.60;99.90
12889;DHT22;56848;49.896;11.424;2023-01-28T11:30:26;-0.60;99.90
12889;DHT22;56848;49.896;11.424;2023-01-28T11:32:55;-0.60;99.90
12889;DHT22;56848;49.896;11.424;2023-01-28T11:35:25;-0.60;99.90
12889;DHT22;56848;49.896;11.424;2023-01-28T11:37:53;-0.70;99.90
12889;DHT22;56848;49.896;11.424;2023-01-28T11:40:19;-0.70;99.90
12889;DHT22;56848;49.896;11.424;2023-01-28T11:42:46;-0.60;99.90
12889;DHT22;56848;49.896;11.424;2023-01-28T11:45:19;-0.70;99.90
12889;DHT22;56848;49.896;11.424;2023-01-28T11:48:06;-0.70;99.90
12889;DHT22;56848;49.896;11.424;2023-01-28T11:56:32;-0.90;99.90
12889;DHT22;56848;49.896;11.424;2023-01-28T12:07:33;-1.10;99.90
12889;DHT22;56848;49.896;11.424;2023-01-28T12:10:07;-1.10;99.90
12889;DHT22;56848;49.896;11.424;2023-01-28T12:15:18;-1.10;99.90
12889;DHT22;56848;49.896;11.424;2023-01-28T12:20:30;-1.20;99.90
12889;DHT22;56848;49.896;11.424;2023-01-28T12:23:07;-1.10;99.90
12889;DHT22;56848;49.896;11.424;2023-01-28T12:31:35;-1.20;99.90
12889;DHT22;56848;49.896;11.424;2023-01-28T12:36:57;-1.20;99.90
12889;DHT22;56848;49.896;11.424;2023-01-28T12:44:48;-1.20;99.90
12889;DHT22;56848;49.896;11.424;2023-01-28T12:47:23;-1.20;99.90
12889;DHT22;56848;49.896;11.424;2023-01-28T12:49:57;-1.20;99.90
12889;DHT22;56848;49.896;11.424;2023-01-28T12:52:29;-1.20;99.90
12889;DHT22;56848;49.896;11.424;2023-01-28T12:57:28;-1.20;99.90
12889;DHT22;56848;49.896;11.424;2023-01-28T13:03:20;-1.40;99.90
12889;DHT22;56848;49.896;11.424;2023-01-28T13:05:52;-1.50;99.90
12889;DHT22;56848;49.896;11.424;2023-01-28T13:08:25;-1.40;99.90
12889;DHT22;56848;49.896;11.424;2023-01-28T13:10:52;-1.40;99.90
12889;DHT22;56848;49.896;11.424;2023-01-28T13:13:34;-1.40;99.90
12889;DHT22;56848;49.896;11.424;2023-01-28T13:16:01;-1.30;99.90
12889;DHT22;56848;49.896;11.424;2023-01-28T13:21:31;-1.50;99.90
12889;DHT22;56848;49.896;11.424;2023-01-28T13:24:06;-1.50;99.90
12889;DHT22;56848;49.896;11.424;2023-01-28T13:26:46;-1.50;99.90
12889;DHT22;56848;49.896;11.424;2023-01-28T13:29:29;-1.40;99.90
12889;DHT22;56848;49.896;11.424;2023-01-28T13:31:57;-1.40;99.90
12889;DHT22;56848;49.896;11.424;2023-01-28T13:34:41;-1.60;99.90
12889;DHT22;56848;49.896;11.424;2023-01-28T13:37:33;-1.70;99.90
12889;DHT22;56848;49.896;11.424;2023-01-28T13:42:33;-1.60;99.90
12889;DHT22;56848;49.896;11.424;2023-01-28T13:47:43;-1.80;99.90
12889;DHT22;56848;49.896;11.424;2023-01-28T13:50:15;-1.80;99.90
12889;DHT22;56848;49.896;11.424;2023-01-28T13:52:59;-1.80;99.90
12889;DHT22;56848;49.896;11.424;2023-01-28T13:55:37;-1.80;99.90
12889;DHT22;56848;49.896;11.424;2023-01-28T13:58:11;-2.00;99.90
12889;DHT22;56848;49.896;11.424;2023-01-28T14:04:24;-2.00;99.90
12889;DHT22;56848;49.896;11.424;2023-01-28T14:11:55;-2.00;99.90
12889;DHT22;56848;49.896;11.424;2023-01-28T14:15:08;-2.10;99.90
12889;DHT22;56848;49.896;11.424;2023-01-28T14:17:50;-2.20;99.90
12889;DHT22;56848;49.896;11.424;2023-01-28T14:20:21;-2.10;99.90
12889;DHT22;56848;49.896;11.424;2023-01-28T14:22:48;-2.20;99.90
12889;DHT22;56848;49.896;11.424;2023-01-28T14:25:19;-2.20;99.90
12889;DHT22;56848;49.896;11.424;2023-01-28T14:27:49;-2.10;99.90
12889;DHT22;56848;49.896;11.424;2023-01-28T14:33:17;-2.10;99.90
12889;DHT22;56848;49.896;11.424;2023-01-28T14:35:45;-2.30;99.90
12889;DHT22;56848;49.896;11.424;2023-01-28T14:38:15;-2.30;99.90
12889;DHT22;56848;49.896;11.424;2023-01-28T14:40:42;-2.30;99.90
12889;DHT22;56848;49.896;11.424;2023-01-28T14:43:14;-2.30;99.90
12889;DHT22;56848;49.896;11.424;2023-01-28T14:45:55;-2.30;99.90
12889;DHT22;56848;49.896;11.424;2023-01-28T14:59:29;-2.40;99.90
12889;DHT22;56848;49.896;11.424;2023-01-28T15:01:58;-2.50;99.90
12889;DHT22;56848;49.896;11.424;2023-01-28T15:04:29;-2.60;99.90
12889;DHT22;56848;49.896;11.424;2023-01-28T15:06:56;-2.50;99.90
12889;DHT22;56848;49.896;11.424;2023-01-28T15:09:22;-2.50;99.90
12889;DHT22;56848;49.896;11.424;2023-01-28T15:11:52;-2.60;99.90
12889;DHT22;56848;49.896;11.424;2023-01-28T15:14:28;-2.50;99.90
12889;DHT22;56848;49.896;11.424;2023-01-28T15:16:54;-2.50;99.90
12889;DHT22;56848;49.896;11.424;2023-01-28T15:19:29;-2.50;99.90
12889;DHT22;56848;49.896;11.424;2023-01-28T15:22:04;-2.60;99.90
12889;DHT22;56848;49.896;11.424;2023-01-28T15:24:33;-2.60;99.90
12889;DHT22;56848;49.896;11.424;2023-01-28T15:26:59;-2.60;99.90
12889;DHT22;56848;49.896;11.424;2023-01-28T15:29:32;-2.70;99.90
12889;DHT22;56848;49.896;11.424;2023-01-28T15:31:58;-2.80;99.90
12889;DHT22;56848;49.896;11.424;2023-01-28T15:34:24;-2.80;99.90
12889;DHT22;56848;49.896;11.424;2023-01-28T15:36:55;-2.80;99.90
12889;DHT22;56848;49.896;11.424;2023-01-28T15:39:23;-2.80;99.90
12889;DHT22;56848;49.896;11.424;2023-01-28T15:44:24;-2.80;99.90
12889;DHT22;56848;49.896;11.424;2023-01-28T15:46:55;-2.80;99.90
12889;DHT22;56848;49.896;11.424;2023-01-28T15:49:26;-2.90;99.90
12889;DHT22;56848;49.896;11.424;2023-01-28T15:51:53;-3.00;99.90
12889;DHT22;56848;49.896;11.424;2023-01-28T15:54:19;-2.90;99.90
12889;DHT22;56848;49.896;11.424;2023-01-28T15:56:44;-3.00;99.90
12889;DHT22;56848;49.896;11.424;2023-01-28T15:59:18;-3.00;99.90
12889;DHT22;56848;49.896;11.424;2023-01-28T16:01:45;-3.00;99.90
12889;DHT22;56848;49.896;11.424;2023-01-28T16:04:25;-3.00;99.90
12889;DHT22;56848;49.896;11.424;2023-01-28T16:06:51;-3.00;99.90
12889;DHT22;56848;49.896;11.424;2023-01-28T16:11:49;-3.00;99.90
12889;DHT22;56848;49.896;11.424;2023-01-28T16:14:26;-3.10;99.90
12889;DHT22;56848;49.896;11.424;2023-01-28T16:16:53;-3.10;99.90
12889;DHT22;56848;49.896;11.424;2023-01-28T16:22:00;-3.20;99.90
12889;DHT22;56848;49.896;11.424;2023-01-28T16:24:31;-3.30;99.90
12889;DHT22;56848;49.896;11.424;2023-01-28T16:27:00;-3.30;99.90
12889;DHT22;56848;49.896;11.424;2023-01-28T16:29:28;-3.30;99.90
12889;DHT22;56848;49.896;11.424;2023-01-28T16:31:54;-3.40;99.90
12889;DHT22;56848;49.896;11.424;2023-01-28T16:34:20;-3.30;99.90
12889;DHT22;56848;49.896;11.424;2023-01-28T16:36:45;-3.30;99.90
12889;DHT22;56848;49.896;11.424;2023-01-28T16:39:11;-3.30;99.90
12889;DHT22;56848;49.896;11.424;2023-01-28T16:41:41;-3.40;99.90
12889;DHT22;56848;49.896;11.424;2023-01-28T16:44:14;-3.30;99.90
12889;DHT22;56848;49.896;11.424;2023-01-28T16:46:40;-3.40;99.90
12889;DHT22;56848;49.896;11.424;2023-01-28T16:49:06;-3.40;99.90
12889;DHT22;56848;49.896;11.424;2023-01-28T16:51:31;-3.40;99.90
12889;DHT22;56848;49.896;11.424;2023-01-28T16:53:57;-3.40;99.90
12889;DHT22;56848;49.896;11.424;2023-01-28T16:56:25;-3.50;99.90
12889;DHT22;56848;49.896;11.424;2023-01-28T16:58:51;-3.70;99.90
12889;DHT22;56848;49.896;11.424;2023-01-28T17:01:17;-3.70;99.90
12889;DHT22;56848;49.896;11.424;2023-01-28T17:03:43;-3.60;99.90
12889;DHT22;56848;49.896;11.424;2023-01-28T17:06:15;-3.70;99.90
12889;DHT22;56848;49.896;11.424;2023-01-28T17:08:41;-3.70;99.90
12889;DHT22;56848;49.896;11.424;2023-01-28T17:11:07;-3.70;99.90
12889;DHT22;56848;49.896;11.424;2023-01-28T17:13:33;-3.70;99.90
12889;DHT22;56848;49.896;11.424;2023-01-28T17:16:02;-3.70;99.90
12889;DHT22;56848;49.896;11.424;2023-01-28T17:18:28;-3.80;99.90
12889;DHT22;56848;49.896;11.424;2023-01-28T17:20:54;-3.70;99.90
12889;DHT22;56848;49.896;11.424;2023-01-28T17:23:24;-3.60;99.90
12889;DHT22;56848;49.896;11.424;2023-01-28T17:25:49;-3.60;99.90
12889;DHT22;56848;49.896;11.424;2023-01-28T17:28:15;-3.70;99.90
12889;DHT22;56848;49.896;11.424;2023-01-28T17:30:41;-3.70;99.90
12889;DHT22;56848;49.896;11.424;2023-01-28T17:33:07;-3.60;99.90
12889;DHT22;56848;49.896;11.424;2023-01-28T17:35:34;-3.60;99.90
12889;DHT22;56848;49.896;11.424;2023-01-28T17:38:03;-3.70;99.90
12889;DHT22;56848;49.896;11.424;2023-01-28T17:40:30;-3.60;99.90
12889;DHT22;56848;49.896;11.424;2023-01-28T17:42:55;-3.50;99.90
12889;DHT22;56848;49.896;11.424;2023-01-28T17:45:22;-3.60;99.90
12889;DHT22;56848;49.896;11.424;2023-01-28T17:47:49;-3.60;99.90
12889;DHT22;56848;49.896;11.424;2023-01-28T17:50:14;-3.70;99.90
12889;DHT22;56848;49.896;11.424;2023-01-28T17:52:40;-3.60;99.90
12889;DHT22;56848;49.896;11.424;2023-01-28T17:55:06;-3.50;99.90
12889;DHT22;56848;49.896;11.424;2023-01-28T17:57:32;-3.50;99.90
12889;DHT22;56848;49.896;11.424;2023-01-28T17:59:58;-3.60;99.90
12889;DHT22;56848;49.896;11.424;2023-01-28T18:02:23;-3.60;99.90
12889;DHT22;56848;49.896;11.424;2023-01-28T18:04:49;-3.60;99.90
12889;DHT22;56848;49.896;11.424;2023-01-28T18:07:15;-3.60;99.90
12889;DHT22;56848;49.896;11.424;2023-01-28T18:09:42;-3.60;99.90
12889;DHT22;56848;49.896;11.424;2023-01-28T18:12:12;-3.70;99.90
12889;DHT22;56848;49.896;11.424;2023-01-28T18:14:38;-3.60;99.90
12889;DHT22;56848;49.896;11.424;2023-01-28T18:17:05;-3.50;99.90
12889;DHT22;56848;49.896;11.424;2023-01-28T18:19:31;-3.50;99.90
12889;DHT22;56848;49.896;11.424;2023-01-28T18:21:56;-3.50;99.90
12889;DHT22;56848;49.896;11.424;2023-01-28T18:24:25;-3.60;99.90
12889;DHT22;56848;49.896;11.424;2023-01-28T18:26:52;-3.60;99.90
12889;DHT22;56848;49.896;11.424;2023-01-28T18:29:23;-3.60;99.90
12889;DHT22;56848;49.896;11.424;2023-01-28T18:31:50;-3.60;99.90
12889;DHT22;56848;49.896;11.424;2023-01-28T18:34:18;-3.70;99.90
12889;DHT22;56848;49.896;11.424;2023-01-28T18:36:44;-3.60;99.90
12889;DHT22;56848;49.896;11.424;2023-01-28T18:39:11;-3.60;99.90
12889;DHT22;56848;49.896;11.424;2023-01-28T18:41:37;-3.60;99.90
12889;DHT22;56848;49.896;11.424;2023-01-28T18:44:03;-3.60;99.90
12889;DHT22;56848;49.896;11.424;2023-01-28T18:46:28;-3.70;99.90
12889;DHT22;56848;49.896;11.424;2023-01-28T18:48:55;-3.60;99.90
12889;DHT22;56848;49.896;11.424;2023-01-28T18:51:21;-3.60;99.90
12889;DHT22;56848;49.896;11.424;2023-01-28T18:53:47;-3.70;99.90
12889;DHT22;56848;49.896;11.424;2023-01-28T18:56:12;-3.60;99.90
12889;DHT22;56848;49.896;11.424;2023-01-28T18:58:38;-3.70;99.90
12889;DHT22;56848;49.896;11.424;2023-01-28T19:01:10;-3.70;99.90
12889;DHT22;56848;49.896;11.424;2023-01-28T19:03:36;-3.70;99.90
12889;DHT22;56848;49.896;11.424;2023-01-28T19:06:07;-3.70;99.90
12889;DHT22;56848;49.896;11.424;2023-01-28T19:08:35;-3.60;99.90
12889;DHT22;56848;49.896;11.424;2023-01-28T19:11:02;-3.70;99.90
12889;DHT22;56848;49.896;11.424;2023-01-28T19:13:28;-3.70;99.90
12889;DHT22;56848;49.896;11.424;2023-01-28T19:15:54;-3.70;99.90
12889;DHT22;56848;49.896;11.424;2023-01-28T19:18:20;-3.70;99.90
12889;DHT22;56848;49.896;11.424;2023-01-28T19:20:46;-3.80;99.90
12889;DHT22;56848;49.896;11.424;2023-01-28T19:23:12;-3.70;99.90
12889;DHT22;56848;49.896;11.424;2023-01-28T19:25:38;-3.80;99.90
12889;DHT22;56848;49.896;11.424;2023-01-28T19:28:05;-3.80;99.90
12889;DHT22;56848;49.896;11.424;2023-01-28T19:30:34;-3.80;99.90
12889;DHT22;56848;49.896;11.424;2023-01-28T19:33:00;-3.90;99.90
12889;DHT22;56848;49.896;11.424;2023-01-28T19:35:26;-3.90;99.90
12889;DHT22;56848;49.896;11.424;2023-01-28T19:37:52;-3.80;99.90
12889;DHT22;56848;49.896;11.424;2023-01-28T19:40:18;-3.90;99.90
12889;DHT22;56848;49.896;11.424;2023-01-28T19:42:44;-3.80;99.90
12889;DHT22;56848;49.896;11.424;2023-01-28T19:45:11;-3.80;99.90
12889;DHT22;56848;49.896;11.424;2023-01-28T19:47:36;-3.80;99.90
12889;DHT22;56848;49.896;11.424;2023-01-28T19:50:02;-3.80;99.90
12889;DHT22;56848;49.896;11.424;2023-01-28T19:52:29;-3.90;99.90
12889;DHT22;56848;49.896;11.424;2023-01-28T19:54:55;-3.80;99.90
12889;DHT22;56848;49.896;11.424;2023-01-28T19:57:20;-3.80;99.90
12889;DHT22;56848;49.896;11.424;2023-01-28T19:59:46;-3.80;99.90
12889;DHT22;56848;49.896;11.424;2023-01-28T20:02:12;-3.80;99.90
12889;DHT22;56848;49.896;11.424;2023-01-28T20:04:37;-3.80;99.90
12889;DHT22;56848;49.896;11.424;2023-01-28T20:07:03;-3.80;99.90
12889;DHT22;56848;49.896;11.424;2023-01-28T20:09:28;-3.70;99.90
12889;DHT22;56848;49.896;11.424;2023-01-28T20:11:54;-3.80;99.90
12889;DHT22;56848;49.896;11.424;2023-01-28T20:14:19;-3.70;99.90
12889;DHT22;56848;49.896;11.424;2023-01-28T20:16:46;-3.70;99.90
12889;DHT22;56848;49.896;11.424;2023-01-28T20:19:16;-3.90;99.90
12889;DHT22;56848;49.896;11.424;2023-01-28T20:21:43;-3.90;99.90
12889;DHT22;56848;49.896;11.424;2023-01-28T20:24:11;-4.00;99.90
12889;DHT22;56848;49.896;11.424;2023-01-28T20:26:38;-4.10;99.90
12889;DHT22;56848;49.896;11.424;2023-01-28T20:29:15;-4.00;99.90
12889;DHT22;56848;49.896;11.424;2023-01-28T20:31:46;-4.10;99.90
12889;DHT22;56848;49.896;11.424;2023-01-28T20:34:15;-4.10;99.90
12889;DHT22;56848;49.896;11.424;2023-01-28T20:36:41;-4.10;99.90
12889;DHT22;56848;49.896;11.424;2023-01-28T20:39:07;-4.10;99.90
12889;DHT22;56848;49.896;11.424;2023-01-28T20:41:33;-4.20;99.90
12889;DHT22;56848;49.896;11.424;2023-01-28T20:43:58;-4.10;99.90
12889;DHT22;56848;49.896;11.424;2023-01-28T20:46:27;-4.10;99.90
12889;DHT22;56848;49.896;11.424;2023-01-28T20:48:54;-4.10;99.90
12889;DHT22;56848;49.896;11.424;2023-01-28T20:51:22;-4.10;99.90
12889;DHT22;56848;49.896;11.424;2023-01-28T20:53:49;-4.20;99.90
12889;DHT22;56848;49.896;11.424;2023-01-28T20:56:17;-4.20;99.90
12889;DHT22;56848;49.896;11.424;2023-01-28T20:58:44;-4.40;99.90
12889;DHT22;56848;49.896;11.424;2023-01-28T21:01:17;-4.30;99.90
12889;DHT22;56848;49.896;11.424;2023-01-28T21:03:43;-4.30;99.90
12889;DHT22;56848;49.896;11.424;2023-01-28T21:06:09;-4.20;99.90
12889;DHT22;56848;49.896;11.424;2023-01-28T21:08:34;-4.20;99.90
12889;DHT22;56848;49.896;11.424;2023-01-28T21:11:04;-4.20;99.90
12889;DHT22;56848;49.896;11.424;2023-01-28T21:13:30;-4.10;99.90
12889;DHT22;56848;49.896;11.424;2023-01-28T21:15:57;-4.10;99.90
12889;DHT22;56848;49.896;11.424;2023-01-28T21:18:23;-4.10;99.90
12889;DHT22;56848;49.896;11.424;2023-01-28T21:20:49;-4.10;99.90
12889;DHT22;56848;49.896;11.424;2023-01-28T21:23:15;-4.20;99.90
12889;DHT22;56848;49.896;11.424;2023-01-28T21:25:42;-4.20;99.90
12889;DHT22;56848;49.896;11.424;2023-01-28T21:28:11;-4.30;99.90
12889;DHT22;56848;49.896;11.424;2023-01-28T21:30:37;-4.30;99.90
12889;DHT22;56848;49.896;11.424;2023-01-28T21:33:03;-4.30;99.90
12889;DHT22;56848;49.896;11.424;2023-01-28T21:35:28;-4.40;99.90
12889;DHT22;56848;49.896;11.424;2023-01-28T21:37:55;-4.40;99.90
12889;DHT22;56848;49.896;11.424;2023-01-28T21:40:20;-4.40;99.90
12889;DHT22;56848;49.896;11.424;2023-01-28T21:42:46;-4.40;99.90
12889;DHT22;56848;49.896;11.424;2023-01-28T21:45:12;-4.40;99.90
12889;DHT22;56848;49.896;11.424;2023-01-28T21:47:37;-4.40;99.90
12889;DHT22;56848;49.896;11.424;2023-01-28T21:50:03;-4.50;99.90
12889;DHT22;56848;49.896;11.424;2023-01-28T21:52:29;-4.40;99.90
12889;DHT22;56848;49.896;11.424;2023-01-28T21:54:55;-4.40;99.90
12889;DHT22;56848;49.896;11.424;2023-01-28T21:57:20;-4.40;99.90